Home   Weather   Germany   Chemnitz   Past weeks
Flag for Germany

Past Weather in Chemnitz, Saxony, Germany — Yesterday and Last 2 Weeks

Currently: 63 °F. Scattered clouds. (Weather station: Altenburg Nobitz, Germany). See more current weather

Past Weather in Chemnitz — Graph

°F

Chemnitz Temperature Yesterday

Maximum temperature yesterday: 77 °F (at 3:50 pm)
Minimum temperature yesterday: 50 °F (at 2:20 am)
Average temperature yesterday: 62 °F

High & Low Weather Summary for the Past Weeks

 TemperatureHumidityPressure
High77 °F (Sep 14, 3:50 pm)100% (Sep 13, 1:20 am)30.39 "Hg (Sep 13, 1:20 am)
Low48 °F (Sep 19, 10:50 pm)41% (Sep 23, 2:50 pm)29.86 "Hg (Sep 15, 5:20 pm)
Average59 °F82%30.06 "Hg
* Reported Sep 12 9:20 am — Sep 27 9:20 am, Chemnitz. Weather by CustomWeather, © 2021

Note: Actual official high and low records may vary slightly from our data, if they occured in-between our weather recording intervals... More about our weather records

Chemnitz Weather History for the Previous 24 Hours

Scroll right to see more
 ConditionsComfort  
Time TempWeatherWind HumidityBarometerVisibility
9:20 am
Mon, Sep 27
63 °FPassing clouds.5 mph94%30.04 "HgN/A
8:50 am61 °FPassing clouds.3 mph94%30.04 "Hg6 mi
8:20 am59 °FPassing clouds.3 mph100%30.04 "Hg6 mi
7:50 am59 °FBroken clouds.3 mph100%30.04 "HgN/A
7:20 am59 °FBroken clouds.3 mph100%30.04 "Hg6 mi
6:50 am59 °FLow clouds.2 mph100%30.04 "Hg3 mi
6:20 am61 °FMostly cloudy.2 mph94%30.04 "Hg3 mi
5:50 am61 °FMostly cloudy.2 mph94%30.07 "Hg5 mi
5:20 am61 °FMostly cloudy.2 mph94%30.04 "HgN/A
4:50 am61 °FOvercast.5 mph94%30.07 "HgN/A
4:20 am61 °FMostly cloudy.6 mph94%30.07 "HgN/A
3:50 am61 °FMostly cloudy.5 mph94%30.07 "HgN/A
3:20 am61 °FPartly cloudy.3 mph94%30.04 "HgN/A
2:50 am61 °FMostly cloudy.5 mph94%30.04 "HgN/A
2:20 am63 °FPassing clouds.7 mph88%30.04 "HgN/A
1:50 am64 °FMostly cloudy.14 mph83%30.04 "HgN/A
1:20 am61 °FOvercast.3 mph94%30.04 "HgN/A
12:50 am61 °FPassing clouds.2 mph94%30.01 "HgN/A
12:20 am61 °FPassing clouds.1 mph94%30.01 "HgN/A
11:50 pm
Sun, Sep 26
61 °FPassing clouds.1 mph94%30.01 "HgN/A
11:20 pm64 °FPassing clouds.6 mph83%30.01 "HgN/A
10:50 pm64 °FPassing clouds.5 mph83%30.01 "HgN/A
10:20 pm64 °FPartly cloudy.5 mph88%30.01 "Hg5 mi
9:50 pm61 °FPassing clouds.2 mph94%30.01 "HgN/A
9:20 pm63 °FPartly cloudy.1 mph94%30.01 "HgN/A
8:50 pm63 °FPassing clouds.No wind94%30.01 "HgN/A
8:20 pm63 °FPassing clouds.2 mph100%30.01 "HgN/A
7:50 pm64 °FPassing clouds.2 mph88%30.01 "HgN/A
7:20 pm66 °FClear.3 mph94%30.01 "Hg4 mi
6:50 pm70 °FSunny.2 mph88%30.01 "Hg10 mi
6:20 pm73 °FSunny.1 mph78%30.01 "Hg10 mi
5:50 pm75 °FSunny.2 mph74%30.01 "Hg10 mi
5:20 pm77 °FSunny.2 mph57%30.01 "Hg10 mi
4:50 pm77 °FPassing clouds.5 mph57%30.01 "HgN/A
4:20 pm77 °FPassing clouds.5 mph57%30.04 "HgN/A
3:50 pm77 °FSunny.5 mph57%30.04 "Hg10 mi
3:20 pm75 °FPassing clouds.3 mph57%30.04 "HgN/A
2:50 pm75 °FPassing clouds.5 mph57%30.04 "HgN/A
2:20 pm75 °FPassing clouds.5 mph57%30.04 "HgN/A
1:50 pm73 °FPassing clouds.6 mph61%30.04 "HgN/A
1:20 pm73 °FPassing clouds.9 mph57%30.04 "HgN/A
12:50 pm73 °FSunny.9 mph57%30.04 "Hg10 mi
12:20 pm73 °FSunny.8 mph57%30.07 "Hg10 mi
11:50 am70 °FPassing clouds.5 mph69%30.07 "HgN/A
11:20 am70 °FSunny.2 mph64%30.07 "Hg10 mi
10:50 am68 °FSunny.1 mph73%30.07 "Hg10 mi
10:20 am64 °FPassing clouds.3 mph78%30.07 "HgN/A
Weather by CustomWeather, © 2021

See weather overview